Time;durP1;ratioP1;P1;durP2;ratioP2;P2;SDS_P1;SDS_P2;PMS_P1;PMS_P2;Temp;Humidity;BMP_temperature;BMP_pressure;BME280_temperature;BME280_humidity;BME280_pressure;Samples;Min_cycle;Max_cycle;Signal;HPM_P1;HPM_P2
2023/04/04 00:00:57;;;;;;;6.40;3.28;;;;;;;-2.41;100.00;93422.47;2071748;28;20029;-84
2023/04/04 00:02:18;;;;;;;5.20;3.10;;;;;;;-2.48;100.00;93414.38;2074097;28;20041;-84
2023/04/04 00:03:38;;;;;;;4.57;3.05;;;;;;;-2.57;100.00;93417.09;2077137;28;20065;-81
2023/04/04 00:05:01;;;;;;;4.75;3.22;;;;;;;-2.54;100.00;93417.19;2073410;28;20063;-84
2023/04/04 00:06:21;;;;;;;5.00;3.20;;;;;;;-2.57;100.00;93404.75;2072977;28;20491;-82
2023/04/04 00:07:45;;;;;;;5.85;3.13;;;;;;;-2.48;100.00;93407.28;2072915;28;20073;-83
2023/04/04 00:09:05;;;;;;;5.25;3.17;;;;;;;-2.48;100.00;93425.59;2074931;28;20029;-83
2023/04/04 00:10:26;;;;;;;3.20;2.90;;;;;;;-2.53;100.00;93417.97;2073985;28;20115;-81
2023/04/04 00:11:47;;;;;;;5.32;3.30;;;;;;;-2.57;100.00;93412.63;2067130;28;20026;-83
2023/04/04 00:13:08;;;;;;;6.03;3.42;;;;;;;-2.55;100.00;93414.91;2071991;28;20036;-82
2023/04/04 00:14:29;;;;;;;4.38;2.97;;;;;;;-2.67;100.00;93405.19;2072775;28;20038;-82
2023/04/04 00:15:52;;;;;;;8.32;3.70;;;;;;;-2.74;100.00;93406.81;2075181;28;20680;-81
2023/04/04 00:17:12;;;;;;;4.38;3.08;;;;;;;-2.69;100.00;93407.34;2066161;28;20051;-83
2023/04/04 00:18:33;;;;;;;6.57;3.60;;;;;;;-2.68;100.00;93408.13;2069377;28;20123;-81
2023/04/04 00:19:53;;;;;;;5.97;3.30;;;;;;;-2.62;100.00;93410.22;2074016;28;20045;-82
2023/04/04 00:21:13;;;;;;;3.92;3.30;;;;;;;-2.53;100.00;93404.88;2073180;28;20043;-82
2023/04/04 00:22:34;;;;;;;5.00;3.22;;;;;;;-2.54;100.00;93417.19;2071878;28;20509;-82
2023/04/04 00:23:58;;;;;;;3.95;2.92;;;;;;;-2.58;100.00;93407.72;2073906;28;20030;-82
2023/04/04 00:25:18;;;;;;;4.32;3.22;;;;;;;-2.42;100.00;93403.34;2071967;28;20038;-82
2023/04/04 00:26:39;;;;;;;6.57;2.78;;;;;;;-2.31;100.00;93403.69;2071169;28;20395;-83
2023/04/04 00:28:00;;;;;;;8.27;3.38;;;;;;;-2.59;100.00;93406.16;2074996;28;20041;-82
2023/04/04 00:29:21;;;;;;;5.47;3.55;;;;;;;-2.64;100.00;93414.22;2078731;28;20509;-82
2023/04/04 00:30:41;;;;;;;5.30;2.85;;;;;;;-2.65;100.00;93405.63;2079490;28;20508;-82
2023/04/04 00:32:02;;;;;;;6.00;3.38;;;;;;;-2.63;100.00;93406.06;2072652;28;20896;-83
2023/04/04 00:33:23;;;;;;;5.93;3.05;;;;;;;-2.69;100.00;93402.13;2072748;28;20037;-84
2023/04/04 00:34:43;;;;;;;3.28;2.53;;;;;;;-2.80;100.00;93401.03;2075224;28;20076;-82
2023/04/04 00:36:04;;;;;;;4.15;3.10;;;;;;;-2.72;100.00;93404.63;2073520;28;20033;-83
2023/04/04 00:37:24;;;;;;;3.67;3.20;;;;;;;-2.72;100.00;93404.63;2069112;28;20117;-82
2023/04/04 00:38:46;;;;;;;3.65;2.80;;;;;;;-2.77;100.00;93400.38;2072505;28;20065;-82
2023/04/04 00:40:08;;;;;;;4.95;2.83;;;;;;;-2.86;100.00;93404.94;2068796;28;20108;-82
2023/04/04 00:41:29;;;;;;;5.53;3.00;;;;;;;-2.87;100.00;93412.00;2071886;28;20038;-81
2023/04/04 00:42:49;;;;;;;5.78;3.90;;;;;;;-2.89;100.00;93398.50;2067926;28;20058;-82
2023/04/04 00:44:11;;;;;;;5.57;3.08;;;;;;;-2.90;100.00;93396.97;2069206;28;20033;-82
2023/04/04 00:45:32;;;;;;;5.32;3.20;;;;;;;-2.85;100.00;93401.25;2068848;28;20161;-81
2023/04/04 00:46:52;;;;;;;5.00;3.53;;;;;;;-2.84;100.00;93402.75;2069877;28;20072;-81
2023/04/04 00:48:13;;;;;;;3.47;2.92;;;;;;;-2.88;100.00;93401.88;2071171;28;20471;-82
2023/04/04 00:49:33;;;;;;;5.05;3.08;;;;;;;-2.76;100.00;93394.06;2068337;28;20498;-82
2023/04/04 00:50:54;;;;;;;6.85;3.53;;;;;;;-2.74;100.00;93401.56;2073917;28;20438;-82
2023/04/04 00:52:15;;;;;;;6.78;3.20;;;;;;;-2.84;100.00;93398.28;2070504;28;20036;-81
2023/04/04 00:53:37;;;;;;;3.33;2.78;;;;;;;-2.88;100.00;93394.03;2072473;28;20041;-81
2023/04/04 00:54:59;;;;;;;4.85;3.67;;;;;;;-3.02;100.00;93401.41;2073378;28;20037;-83
2023/04/04 00:56:21;;;;;;;5.97;2.92;;;;;;;-3.13;100.00;93401.81;2075857;28;20522;-83
2023/04/04 00:57:43;;;;;;;6.68;3.20;;;;;;;-3.08;100.00;93395.59;2073800;28;20451;-83
2023/04/04 00:59:05;;;;;;;6.28;3.35;;;;;;;-2.95;100.00;93406.88;2070186;28;20057;-82
2023/04/04 01:00:28;;;;;;;6.68;3.28;;;;;;;-2.95;100.00;93391.19;2076608;28;20041;-82
2023/04/04 01:01:49;;;;;;;4.82;3.03;;;;;;;-3.02;100.00;93401.41;2072533;28;20112;-81
2023/04/04 01:03:11;;;;;;;3.63;3.05;;;;;;;-3.13;100.00;93393.97;2077726;28;20040;-81
2023/04/04 01:04:32;;;;;;;4.30;3.30;;;;;;;-3.05;100.00;93397.59;2070100;28;20046;-81
2023/04/04 01:05:54;;;;;;;7.07;4.45;;;;;;;-2.95;100.00;93391.19;2074111;28;20491;-83
2023/04/04 01:07:16;;;;;;;5.43;3.38;;;;;;;-2.99;100.00;93382.44;2069965;28;20546;-83
2023/04/04 01:08:40;;;;;;;5.57;3.13;;;;;;;-3.00;100.00;93391.38;2068532;28;20030;-82
2023/04/04 01:10:05;;;;;;;4.55;3.47;;;;;;;-3.05;100.00;93392.34;2071052;28;20038;-82
2023/04/04 01:11:27;;;;;;;4.85;3.40;;;;;;;-3.03;100.00;93390.16;2069450;28;20069;-81
2023/04/04 01:12:50;;;;;;;5.85;3.20;;;;;;;-3.14;100.00;93386.44;2068735;28;20045;-82
2023/04/04 01:14:11;;;;;;;5.40;3.60;;;;;;;-3.23;100.00;93391.00;2069731;28;20034;-82
2023/04/04 01:15:31;;;;;;;4.75;3.08;;;;;;;-3.17;100.00;93384.47;2071012;28;20037;-83
2023/04/04 01:16:52;;;;;;;4.57;3.35;;;;;;;-3.09;100.00;93381.78;2071052;28;20047;-82
2023/04/04 01:18:17;;;;;;;4.55;3.25;;;;;;;-3.23;100.00;93381.31;2070838;28;20597;-84
2023/04/04 01:20:04;;;;;;;3.22;2.90;;;;;;;-3.37;100.00;93391.28;2075987;28;20041;-82
2023/04/04 01:21:27;;;;;;;3.75;2.90;;;;;;;-3.31;100.00;93384.75;2078018;28;20839;-82
2023/04/04 01:22:50;;;;;;;6.32;3.22;;;;;;;-3.42;100.00;93387.03;2071156;28;20033;-82
2023/04/04 01:24:15;;;;;;;4.88;3.53;;;;;;;-3.32;100.00;93388.47;2072483;28;20057;-83
2023/04/04 01:25:35;;;;;;;5.57;3.10;;;;;;;-3.21;100.00;93386.19;2075981;28;20040;-83
2023/04/04 01:26:56;;;;;;;5.72;2.92;;;;;;;-3.25;100.00;93383.47;2071580;28;20453;-82
2023/04/04 01:28:17;;;;;;;5.93;3.10;;;;;;;-3.34;100.00;93380.16;2066165;28;20044;-83
2023/04/04 01:29:37;;;;;;;5.30;2.85;;;;;;;-3.21;100.00;93381.72;2070624;28;20108;-83
2023/04/04 01:31:01;;;;;;;5.78;3.22;;;;;;;-3.08;100.00;93370.22;2069436;28;20065;-83
2023/04/04 01:32:28;;;;;;;4.47;2.97;;;;;;;-3.09;100.00;93375.78;2076798;28;20486;-83
2023/04/04 01:33:59;;;;;;;5.10;3.30;;;;;;;-3.22;100.00;93376.84;2071467;28;20075;-84
2023/04/04 01:35:31;;;;;;;3.85;3.03;;;;;;;-3.12;100.00;93371.97;2071550;28;20033;-81
2023/04/04 01:37:02;;;;;;;4.00;3.13;;;;;;;-3.12;100.00;93371.97;2071151;28;20511;-82
2023/04/04 01:38:42;;;;;;;4.00;2.90;;;;;;;-3.20;100.00;93372.06;2069604;28;20029;-83
2023/04/04 01:40:13;;;;;;;3.83;2.97;;;;;;;-3.26;100.00;93368.88;2068327;28;20034;-82
2023/04/04 01:41:36;;;;;;;4.50;2.83;;;;;;;-3.41;100.00;93378.09;2072999;28;20045;-83
2023/04/04 01:42:57;;;;;;;5.90;2.85;;;;;;;-3.39;100.00;93372.53;2069229;28;20063;-83
2023/04/04 01:44:18;;;;;;;5.97;3.00;;;;;;;-3.42;100.00;93373.97;2070911;28;20040;-82
2023/04/04 01:45:39;;;;;;;4.38;3.28;;;;;;;-3.40;100.00;93373.63;2070678;28;20033;-82
2023/04/04 01:46:59;;;;;;;6.13;2.90;;;;;;;-3.42;100.00;93367.97;2071939;28;20029;-81
2023/04/04 01:48:20;;;;;;;4.30;2.92;;;;;;;-3.36;100.00;93372.66;2073248;28;20080;-83
2023/04/04 01:49:41;;;;;;;6.47;3.00;;;;;;;-3.43;100.00;93372.41;2072260;28;20115;-83
2023/04/04 01:51:01;;;;;;;3.42;2.90;;;;;;;-3.56;100.00;93369.00;2069464;28;20029;-83
2023/04/04 01:52:22;;;;;;;7.05;3.03;;;;;;;-3.57;100.00;93367.47;2074322;28;20573;-84
2023/04/04 01:53:42;;;;;;;5.15;3.35;;;;;;;-3.59;100.00;93364.41;2072638;28;20065;-84
2023/04/04 01:55:03;;;;;;;6.50;3.05;;;;;;;-3.59;100.00;93367.03;2070898;28;20526;-82
2023/04/04 01:56:26;;;;;;;4.00;2.92;;;;;;;-3.76;100.00;93367.16;2067731;28;20503;-84
2023/04/04 01:57:46;;;;;;;3.78;3.35;;;;;;;-3.76;100.00;93369.00;2068720;28;20068;-82
2023/04/04 01:59:09;;;;;;;4.65;3.42;;;;;;;-3.70;100.00;93372.94;2066579;28;20140;-81
2023/04/04 02:00:30;;;;;;;6.10;3.10;;;;;;;-3.69;100.00;93372.63;2070790;28;20038;-82
2023/04/04 02:01:52;;;;;;;7.55;3.60;;;;;;;-3.73;100.00;93361.31;2076304;28;20120;-82
2023/04/04 02:03:13;;;;;;;4.32;3.10;;;;;;;-3.75;100.00;93363.47;2072019;28;20410;-84
2023/04/04 02:04:34;;;;;;;5.43;3.63;;;;;;;-3.78;100.00;93369.31;2073439;28;20029;-83
2023/04/04 02:05:55;;;;;;;5.57;2.80;;;;;;;-3.91;100.00;93372.94;2071456;28;20595;-83
2023/04/04 02:07:16;;;;;;;3.50;2.63;;;;;;;-3.87;100.00;93361.53;2071531;28;20124;-83
2023/04/04 02:08:38;;;;;;;4.80;3.75;;;;;;;-3.92;100.00;93363.59;2070120;28;20521;-83
2023/04/04 02:10:00;;;;;;;4.78;3.55;;;;;;;-3.92;100.00;93363.59;2068443;28;20033;-82
2023/04/04 02:11:22;;;;;;;4.50;3.00;;;;;;;-4.07;100.00;93373.53;2045704;28;20047;-82
2023/04/04 02:12:46;;;;;;;3.97;2.95;;;;;;;-3.99;100.00;93369.34;2067623;28;20057;-82
2023/04/04 02:14:06;;;;;;;4.70;2.90;;;;;;;-3.98;100.00;93367.47;2069856;28;20408;-82
2023/04/04 02:15:27;;;;;;;3.63;2.95;;;;;;;-4.02;100.00;93367.34;2069895;28;20072;-82
2023/04/04 02:16:50;;;;;;;4.38;3.05;;;;;;;-4.08;100.00;93368.63;2039544;29;20138;-82
2023/04/04 02:20:10;;;;;;;3.92;3.10;;;;;;;-4.08;100.00;93372.00;2137937;27;20610;-77
2023/04/04 02:21:31;;;;;;;6.53;2.97;;;;;;;-4.10;100.00;93366.31;2133007;27;20039;-76
2023/04/04 02:22:54;;;;;;;6.63;3.30;;;;;;;-4.06;100.00;93362.00;2135996;27;20404;-77
2023/04/04 02:24:14;;;;;;;4.95;3.17;;;;;;;-4.00;100.00;93367.03;2136611;27;20041;-77
2023/04/04 02:25:35;;;;;;;5.82;3.30;;;;;;;-4.07;100.00;93362.31;2120146;27;20043;-76
2023/04/04 02:26:59;;;;;;;3.45;3.08;;;;;;;-4.10;100.00;93368.94;2100131;28;20142;-77
2023/04/04 02:28:21;;;;;;;5.15;3.38;;;;;;;-4.16;100.00;93359.75;2133959;27;20054;-76
2023/04/04 02:29:49;;;;;;;4.90;3.20;;;;;;;-4.17;100.00;93355.63;2109293;28;20104;-77
2023/04/04 02:31:32;;;;;;;4.75;3.35;;;;;;;-4.30;100.00;93359.25;2134372;27;20057;-77
2023/04/04 02:33:05;;;;;;;7.45;2.90;;;;;;;-4.22;100.00;93361.00;2136067;27;20046;-76
2023/04/04 02:34:28;;;;;;;4.57;2.85;;;;;;;-4.26;100.00;93359.34;2135836;27;20446;-77
2023/04/04 02:35:51;;;;;;;4.70;3.00;;;;;;;-4.20;100.00;93364.09;2109687;28;20044;-76
2023/04/04 02:37:14;;;;;;;6.63;3.33;;;;;;;-4.31;100.00;93362.91;2136155;27;20022;-76
2023/04/04 02:38:35;;;;;;;5.70;3.60;;;;;;;-4.22;100.00;93363.63;2134293;27;20035;-76
2023/04/04 02:39:55;;;;;;;4.45;3.30;;;;;;;-4.12;100.00;93363.28;2135438;27;20033;-76
2023/04/04 02:41:16;;;;;;;4.28;3.10;;;;;;;-4.10;100.00;93366.31;2135392;27;20030;-76
2023/04/04 02:42:41;;;;;;;4.75;3.03;;;;;;;-4.13;100.00;93360.97;2134993;27;20041;-77
2023/04/04 02:44:02;;;;;;;3.22;2.90;;;;;;;-4.14;100.00;93362.81;2136212;27;20556;-76
2023/04/04 02:45:23;;;;;;;5.00;3.15;;;;;;;-4.15;100.00;93363.13;2134244;27;20034;-77
2023/04/04 02:46:45;;;;;;;4.90;3.30;;;;;;;-4.27;100.00;93355.97;2135949;27;20811;-79
2023/04/04 02:48:09;;;;;;;3.97;3.40;;;;;;;-4.33;100.00;93362.47;2114810;27;20035;-78
2023/04/04 02:49:30;;;;;;;6.00;3.40;;;;;;;-4.33;100.00;93362.47;2118737;28;20043;-78
2023/04/04 02:50:53;;;;;;;3.03;2.72;;;;;;;-4.34;100.00;93358.34;2128817;27;20035;-77
2023/04/04 02:52:14;;;;;;;6.15;3.40;;;;;;;-4.48;100.00;93349.97;2134579;27;20037;-76
2023/04/04 02:53:35;;;;;;;5.85;3.30;;;;;;;-4.42;100.00;93351.31;2100745;28;20051;-77
2023/04/04 02:54:55;;;;;;;4.28;3.10;;;;;;;-4.44;100.00;93348.25;2126860;27;20031;-77
2023/04/04 02:56:18;;;;;;;3.90;3.08;;;;;;;-4.47;100.00;93357.50;2131851;27;20690;-77
2023/04/04 02:57:39;;;;;;;7.22;3.53;;;;;;;-4.49;100.00;93345.84;2125682;27;20864;-78
2023/04/04 02:59:04;;;;;;;5.38;2.95;;;;;;;-4.50;100.00;93346.91;2119219;27;20730;-77
2023/04/04 03:00:26;;;;;;;6.40;3.85;;;;;;;-4.58;100.00;93348.47;2108858;27;20070;-78
2023/04/04 03:01:48;;;;;;;7.20;3.47;;;;;;;-4.54;100.00;93349.38;2090143;28;20036;-77
2023/04/04 03:03:09;;;;;;;5.25;3.30;;;;;;;-4.56;100.00;93349.72;2117280;27;20046;-76
2023/04/04 03:04:31;;;;;;;6.53;3.22;;;;;;;-4.61;100.00;93349.91;2135765;27;20038;-77
2023/04/04 03:05:52;;;;;;;4.50;3.22;;;;;;;-4.60;100.00;93345.44;2116461;27;20047;-77
2023/04/04 03:07:15;;;;;;;3.83;3.05;;;;;;;-4.66;100.00;93350.03;2079298;28;20040;-78
2023/04/04 03:08:35;;;;;;;3.95;3.55;;;;;;;-4.65;100.00;93343.78;2072496;28;20550;-77
2023/04/04 03:09:57;;;;;;;6.32;3.30;;;;;;;-4.64;100.00;93341.94;2123366;27;20120;-76
2023/04/04 03:11:22;;;;;;;5.07;3.05;;;;;;;-4.64;100.00;93345.28;2131868;27;20523;-77
2023/04/04 03:12:42;;;;;;;4.25;3.30;;;;;;;-4.58;100.00;93338.81;2136155;27;20034;-80
2023/04/04 03:14:03;;;;;;;4.65;3.35;;;;;;;-4.55;100.00;93345.25;2134064;27;20535;-78
2023/04/04 03:15:25;;;;;;;5.88;3.47;;;;;;;-4.59;100.00;93347.72;2135781;27;20035;-79
2023/04/04 03:16:48;;;;;;;4.97;3.30;;;;;;;-4.54;100.00;93343.41;2119812;27;20142;-77
2023/04/04 03:18:09;;;;;;;4.05;2.95;;;;;;;-4.57;100.00;93342.94;2135140;27;20019;-77
2023/04/04 03:19:29;;;;;;;4.72;3.20;;;;;;;-4.65;100.00;93343.78;2134228;27;20110;-76
2023/04/04 03:20:50;;;;;;;7.75;3.58;;;;;;;-4.62;100.00;93347.59;2133856;27;20053;-77
2023/04/04 03:22:10;;;;;;;5.32;3.35;;;;;;;-4.64;100.00;93342.69;2135477;27;20034;-76
2023/04/04 03:23:31;;;;;;;7.28;3.47;;;;;;;-4.71;100.00;93344.25;2134209;27;20087;-76
2023/04/04 03:24:52;;;;;;;5.60;3.50;;;;;;;-4.67;100.00;93342.53;2135523;27;20115;-77
2023/04/04 03:26:14;;;;;;;5.97;3.20;;;;;;;-4.70;100.00;93343.94;2125247;27;20030;-77
2023/04/04 03:27:38;;;;;;;4.03;3.15;;;;;;;-4.72;100.00;93340.13;2130674;27;20094;-76
2023/04/04 03:28:59;;;;;;;5.40;3.42;;;;;;;-4.77;100.00;93338.47;2135642;27;20026;-76
2023/04/04 03:30:19;;;;;;;3.55;3.10;;;;;;;-4.73;100.00;93344.56;2135389;27;20488;-76
2023/04/04 03:31:40;;;;;;;4.25;3.28;;;;;;;-4.66;100.00;93349.28;2119777;27;20438;-77
2023/04/04 03:33:07;;;;;;;5.00;3.60;;;;;;;-4.55;100.00;93350.47;2116353;27;20107;-76
2023/04/04 03:34:27;;;;;;;9.88;3.80;;;;;;;-4.59;100.00;93350.34;2115273;27;20143;-76
2023/04/04 03:35:50;;;;;;;5.03;3.15;;;;;;;-4.58;100.00;93344.03;2126609;27;20027;-77
2023/04/04 03:37:11;;;;;;;8.50;3.33;;;;;;;-4.68;100.00;93346.25;2094753;28;20510;-77
2023/04/04 03:38:31;;;;;;;7.03;3.20;;;;;;;-4.68;100.00;93341.03;2130296;27;20480;-76
2023/04/04 03:39:54;;;;;;;10.55;3.60;;;;;;;-4.81;100.00;93335.72;2119760;27;20046;-76
2023/04/04 03:41:18;;;;;;;8.02;3.78;;;;;;;-4.72;100.00;93337.50;2094269;28;20168;-76
2023/04/04 03:42:38;;;;;;;6.70;3.55;;;;;;;-4.75;100.00;93341.50;2094018;28;20070;-76
2023/04/04 03:43:59;;;;;;;6.30;3.78;;;;;;;-4.81;100.00;93340.91;2124814;27;20058;-77
2023/04/04 03:45:20;;;;;;;4.68;3.28;;;;;;;-4.82;100.00;93336.78;2128836;27;20113;-76
2023/04/04 03:46:41;;;;;;;4.30;3.40;;;;;;;-4.84;100.00;93332.97;2121306;27;21011;-76
2023/04/04 03:48:03;;;;;;;5.00;3.40;;;;;;;-4.74;100.00;93343.06;2118229;27;20030;-76
2023/04/04 03:49:24;;;;;;;3.88;3.17;;;;;;;-4.83;100.00;93340.47;2085601;28;20044;-76
2023/04/04 03:50:46;;;;;;;3.70;3.40;;;;;;;-4.82;100.00;93333.44;2120037;27;20054;-76
2023/04/04 03:52:08;;;;;;;6.88;3.15;;;;;;;-4.78;100.00;93336.16;2083566;28;20511;-76
2023/04/04 03:53:30;;;;;;;4.70;3.33;;;;;;;-4.68;100.00;93336.56;2092293;28;20376;-77
2023/04/04 03:54:53;;;;;;;5.55;3.17;;;;;;;-4.77;100.00;93328.03;2128265;27;20030;-76
2023/04/04 03:56:19;;;;;;;6.15;3.35;;;;;;;-4.84;100.00;93335.56;2130046;27;20023;-77
2023/04/04 03:57:39;;;;;;;6.85;3.13;;;;;;;-4.93;100.00;93333.00;2128822;27;20030;-76
2023/04/04 03:59:00;;;;;;;3.90;3.20;;;;;;;-4.98;100.00;93340.22;2121228;27;20054;-76
2023/04/04 04:00:20;;;;;;;5.05;3.33;;;;;;;-4.95;100.00;93342.22;2125995;27;20031;-76
2023/04/04 04:01:41;;;;;;;4.10;3.17;;;;;;;-4.91;100.00;93337.91;2128985;27;20023;-77
2023/04/04 04:03:01;;;;;;;4.32;3.45;;;;;;;-4.97;100.00;93339.91;2126749;27;20133;-76
2023/04/04 04:04:22;;;;;;;4.93;3.20;;;;;;;-5.05;100.00;93338.09;2126633;27;20043;-76
2023/04/04 04:05:44;;;;;;;5.88;3.25;;;;;;;-5.06;100.00;93339.94;2098695;27;20043;-76
2023/04/04 04:07:06;;;;;;;5.63;3.58;;;;;;;-4.98;100.00;93341.00;2091249;28;20044;-76
2023/04/04 04:08:27;;;;;;;5.10;3.42;;;;;;;-4.94;100.00;93341.13;2084361;28;20056;-76
2023/04/04 04:09:48;;;;;;;5.03;3.50;;;;;;;-4.99;100.00;93341.31;2119960;27;20066;-78
2023/04/04 04:11:09;;;;;;;6.10;3.47;;;;;;;-5.02;100.00;93334.88;2119001;27;20030;-77
2023/04/04 04:12:30;;;;;;;5.82;3.60;;;;;;;-5.02;100.00;93336.72;2118240;27;20070;-76
2023/04/04 04:13:52;;;;;;;4.43;3.67;;;;;;;-5.10;100.00;93341.63;2096951;28;20040;-75
2023/04/04 04:15:13;;;;;;;5.05;3.58;;;;;;;-5.09;100.00;93337.22;2113141;27;20114;-76
2023/04/04 04:16:38;;;;;;;7.05;4.45;;;;;;;-5.04;100.00;93341.50;2088471;28;20486;-76
2023/04/04 04:17:59;;;;;;;6.68;5.57;;;;;;;-5.06;100.00;93345.16;2126322;27;20069;-76
2023/04/04 04:19:20;;;;;;;7.45;5.00;;;;;;;-5.11;100.00;93339.34;2117018;27;20032;-76
2023/04/04 04:20:41;;;;;;;5.15;4.30;;;;;;;-5.11;100.00;93344.56;2087983;28;20041;-75
2023/04/04 04:22:03;;;;;;;5.45;3.80;;;;;;;-5.16;100.00;93337.69;2128207;27;20211;-75
2023/04/04 04:23:24;;;;;;;4.50;3.72;;;;;;;-5.22;100.00;93338.94;2083338;28;20073;-75
2023/04/04 04:24:45;;;;;;;6.45;4.32;;;;;;;-5.24;100.00;93343.69;2093955;28;20058;-75
2023/04/04 04:26:06;;;;;;;6.28;4.38;;;;;;;-5.23;100.00;93340.00;2126183;27;20385;-75
2023/04/04 04:27:26;;;;;;;6.63;5.15;;;;;;;-5.31;100.00;93340.81;2116502;27;20121;-74
2023/04/04 04:28:49;;;;;;;5.65;4.85;;;;;;;-5.23;100.00;93341.84;2123003;27;20425;-76
2023/04/04 04:30:11;;;;;;;7.25;4.97;;;;;;;-5.29;100.00;93337.88;2099607;28;20047;-76
2023/04/04 04:31:33;;;;;;;7.60;5.22;;;;;;;-5.30;100.00;93334.50;2083116;28;20050;-75
2023/04/04 04:32:56;;;;;;;8.00;5.05;;;;;;;-5.35;100.00;93334.69;2126413;27;20027;-75
2023/04/04 04:34:16;;;;;;;7.57;4.30;;;;;;;-5.22;100.00;93340.78;2126721;27;20031;-75
2023/04/04 04:35:38;;;;;;;5.55;4.15;;;;;;;-5.23;100.00;93347.81;2126722;27;20030;-75
2023/04/04 04:37:01;;;;;;;5.07;4.15;;;;;;;-5.14;100.00;93350.38;2126656;27;20111;-78
2023/04/04 04:38:22;;;;;;;8.68;4.85;;;;;;;-5.15;100.00;93348.88;2125980;27;20023;-76
2023/04/04 04:39:45;;;;;;;8.43;4.00;;;;;;;-5.08;100.00;93343.94;2124604;27;20066;-76
2023/04/04 04:41:06;;;;;;;9.05;4.07;;;;;;;-5.02;100.00;93349.75;2126276;27;20452;-76
2023/04/04 04:42:28;;;;;;;6.25;4.30;;;;;;;-5.13;100.00;93346.72;2120971;27;20031;-76
2023/04/04 04:43:51;;;;;;;6.75;3.90;;;;;;;-5.18;100.00;93346.88;2113882;27;20115;-76
2023/04/04 04:45:12;;;;;;;8.45;4.00;;;;;;;-5.18;100.00;93350.25;2117384;27;20038;-76
2023/04/04 04:46:33;;;;;;;5.32;3.92;;;;;;;-5.32;100.00;93354.88;2115959;27;20457;-76
2023/04/04 04:47:54;;;;;;;5.00;4.05;;;;;;;-5.27;100.00;93349.50;2120541;27;20460;-76
2023/04/04 04:49:25;;;;;;;6.63;4.38;;;;;;;-5.26;100.00;93348.44;2122175;27;20534;-76
2023/04/04 04:50:47;;;;;;;7.90;4.50;;;;;;;-5.29;100.00;93353.50;2117553;27;20043;-75
2023/04/04 04:52:09;;;;;;;4.38;3.55;;;;;;;-5.17;100.00;93353.63;2114916;27;20026;-75
2023/04/04 04:53:30;;;;;;;6.20;3.92;;;;;;;-5.35;100.00;93355.53;2122325;27;20066;-75
2023/04/04 04:54:31;;;;;;;6.10;3.67;;;;;;;-5.34;100.00;93352.59;2127784;27;20026;-75
2023/04/04 04:55:32;;;;;;;6.55;4.40;;;;;;;-5.33;100.00;93358.56;2122888;27;20365;-76
2023/04/04 04:56:33;;;;;;;5.57;4.22;;;;;;;-5.35;100.00;93355.53;2118070;27;20129;-75
2023/04/04 04:57:34;;;;;;;8.15;4.30;;;;;;;-5.35;100.00;93356.28;2124812;27;20125;-75
2023/04/04 04:58:35;;;;;;;10.55;4.22;;;;;;;-5.35;100.00;93358.13;2101176;28;20460;-76
2023/04/04 04:59:36;;;;;;;6.85;4.05;;;;;;;-5.38;100.00;93358.72;2097494;28;20028;-75
2023/04/04 05:00:37;;;;;;;11.07;4.45;;;;;;;-5.37;100.00;93355.81;2105617;28;20174;-75
2023/04/04 05:01:52;;;;;;;;;;;;;;;;;;;;;
2023/04/04 05:03:00;;;;;;;7.22;3.90;;;;;;;-5.41;100.00;93361.94;2109005;27;20074;-75
2023/04/04 05:04:02;;;;;;;6.00;3.83;;;;;;;-5.37;100.00;93358.41;2114899;27;20023;-75
2023/04/04 05:05:05;;;;;;;7.68;3.60;;;;;;;-5.38;100.00;93354.28;2123716;27;20081;-74
2023/04/04 05:06:06;;;;;;;6.13;3.90;;;;;;;-5.42;100.00;93363.03;2125201;27;20555;-75
2023/04/04 05:07:07;;;;;;;5.60;3.95;;;;;;;-5.42;100.00;93361.19;2123728;27;20106;-74
2023/04/04 05:08:08;;;;;;;4.65;3.78;;;;;;;-5.43;100.00;93358.91;2123190;27;20397;-75
2023/04/04 05:09:12;;;;;;;7.28;4.43;;;;;;;-5.52;100.00;93363.34;2114194;27;20533;-75
2023/04/04 05:10:16;;;;;;;7.90;4.05;;;;;;;-5.39;100.00;93370.22;2115538;27;20182;-74
2023/04/04 05:11:20;;;;;;;5.97;4.25;;;;;;;-5.30;100.00;93357.94;2123174;27;20023;-74
2023/04/04 05:12:32;;;;;;;5.78;4.30;;;;;;;-5.29;100.00;93353.50;2115879;27;20023;-76
2023/04/04 05:13:34;;;;;;;5.13;4.22;;;;;;;-5.34;100.00;93357.81;2115077;27;20433;-76
2023/04/04 05:14:36;;;;;;;6.65;4.40;;;;;;;-5.37;100.00;93357.66;2114258;27;20035;-76
2023/04/04 05:15:37;;;;;;;6.90;4.10;;;;;;;-5.33;100.00;93361.94;2113118;27;20023;-76
2023/04/04 05:16:38;;;;;;;7.57;3.80;;;;;;;-5.33;100.00;93356.72;2124284;27;20121;-75
2023/04/04 05:17:40;;;;;;;8.57;4.18;;;;;;;-5.26;100.00;93358.09;2114563;27;20027;-76
2023/04/04 05:18:42;;;;;;;8.85;3.97;;;;;;;-5.32;100.00;93347.81;2106457;28;20027;-76
2023/04/04 05:19:43;;;;;;;6.55;3.90;;;;;;;-5.33;100.00;93353.34;2111982;27;20148;-76
2023/04/04 05:20:50;;;;;;;6.70;4.22;;;;;;;-5.29;100.00;93361.31;2114255;27;20447;-76
2023/04/04 05:21:52;;;;;;;9.30;3.80;;;;;;;-5.32;100.00;93357.47;2114932;27;20038;-75
2023/04/04 05:22:53;;;;;;;7.65;3.47;;;;;;;-5.35;100.00;93351.06;2115762;27;20030;-76
2023/04/04 05:23:54;;;;;;;7.22;4.40;;;;;;;-5.34;100.00;93354.44;2116055;27;20115;-76
2023/04/04 05:24:55;;;;;;;8.23;4.18;;;;;;;-5.36;100.00;93362.53;2118827;27;20020;-76
2023/04/04 05:25:57;;;;;;;8.65;4.47;;;;;;;-5.35;100.00;93358.13;2120125;27;20031;-76
2023/04/04 05:27:00;;;;;;;7.40;4.15;;;;;;;-5.30;100.00;93355.34;2115440;27;20015;-76
2023/04/04 05:28:02;;;;;;;5.50;3.90;;;;;;;-5.26;100.00;93358.09;2118746;27;20043;-76
2023/04/04 05:29:03;;;;;;;5.97;3.90;;;;;;;-5.26;100.00;93355.50;2115286;27;20022;-76
2023/04/04 05:30:06;;;;;;;4.00;3.55;;;;;;;-5.36;100.00;93357.34;2118104;27;20027;-75
2023/04/04 05:31:07;;;;;;;7.30;4.18;;;;;;;-5.26;100.00;93364.06;2114863;27;20053;-75
2023/04/04 05:32:09;;;;;;;4.97;3.80;;;;;;;-5.19;100.00;93360.97;2115152;27;20031;-75
2023/04/04 05:33:10;;;;;;;6.28;4.22;;;;;;;-5.12;100.00;93363.88;2116390;27;20040;-74
2023/04/04 05:34:11;;;;;;;4.32;3.75;;;;;;;-5.04;100.00;93364.94;2119093;27;20041;-75
2023/04/04 05:35:12;;;;;;;10.85;4.03;;;;;;;-4.94;100.00;93369.81;2113152;27;20022;-76
2023/04/04 05:36:13;;;;;;;4.75;4.00;;;;;;;-4.99;100.00;93364.78;2115769;27;20027;-76
2023/04/04 05:37:16;;;;;;;8.23;4.50;;;;;;;-5.02;100.00;93362.78;2114026;27;20461;-76
2023/04/04 05:38:19;;;;;;;8.48;4.72;;;;;;;-4.97;100.00;93362.59;2115242;27;20038;-77
2023/04/04 05:39:21;;;;;;;5.93;4.32;;;;;;;-4.96;100.00;93370.13;2115514;27;20834;-76
2023/04/04 05:40:22;;;;;;;6.43;4.65;;;;;;;-4.77;100.00;93366.38;2115604;27;20254;-76
2023/04/04 05:41:23;;;;;;;6.53;3.90;;;;;;;-4.74;100.00;93366.53;2115339;27;20023;-76
2023/04/04 05:42:24;;;;;;;7.93;3.92;;;;;;;-4.83;100.00;93365.75;2115685;27;20038;-76
2023/04/04 05:43:25;;;;;;;4.30;3.60;;;;;;;-4.67;100.00;93371.22;2114538;27;20027;-76
2023/04/04 05:44:26;;;;;;;8.05;4.32;;;;;;;-4.76;100.00;93368.66;2109409;28;20088;-76
2023/04/04 05:45:28;;;;;;;7.75;4.20;;;;;;;-4.77;100.00;93374.97;2114626;27;20127;-76
2023/04/04 05:46:29;;;;;;;8.68;4.63;;;;;;;-4.76;100.00;93370.50;2115466;27;20027;-76
2023/04/04 05:47:31;;;;;;;5.43;3.67;;;;;;;-4.71;100.00;93368.47;2115163;27;20536;-76
2023/04/04 05:48:35;;;;;;;6.00;4.07;;;;;;;-4.68;100.00;93364.50;2113020;27;20085;-76
2023/04/04 05:49:38;;;;;;;7.70;4.68;;;;;;;-4.71;100.00;93370.31;2118636;27;20125;-75
2023/04/04 05:50:44;;;;;;;6.00;4.20;;;;;;;-4.70;100.00;93372.63;2116972;27;20118;-76
2023/04/04 05:51:47;;;;;;;6.45;4.28;;;;;;;-4.60;100.00;93374.88;2114353;27;20100;-76
2023/04/04 05:52:53;;;;;;;6.18;3.55;;;;;;;-4.46;100.00;93373.91;2114574;27;20107;-75
2023/04/04 05:53:57;;;;;;;7.25;3.63;;;;;;;-4.37;100.00;93379.84;2115187;27;20029;-76
2023/04/04 05:55:01;;;;;;;6.03;3.60;;;;;;;-4.41;100.00;93389.38;2114912;27;20431;-77
2023/04/04 05:56:03;;;;;;;4.32;3.60;;;;;;;-4.37;100.00;93382.44;2115571;27;20027;-76
2023/04/04 05:57:07;;;;;;;4.90;3.88;;;;;;;-4.40;100.00;93380.47;2115234;27;20020;-77
2023/04/04 05:58:08;;;;;;;5.05;3.78;;;;;;;-4.27;100.00;93384.69;2115072;27;20578;-77
2023/04/04 05:59:09;;;;;;;6.97;3.53;;;;;;;-4.33;100.00;93378.91;2116951;27;20019;-77
2023/04/04 06:00:12;;;;;;;5.35;3.20;;;;;;;-4.05;100.00;93383.63;2117118;27;20035;-77
2023/04/04 06:01:13;;;;;;;3.97;3.15;;;;;;;-4.15;100.00;93384.78;2119853;27;20080;-76
2023/04/04 06:02:13;;;;;;;5.85;3.30;;;;;;;-4.27;100.00;93383.94;2114918;27;20572;-76
2023/04/04 06:03:15;;;;;;;8.80;3.97;;;;;;;-4.06;100.00;93384.72;2117727;27;20825;-76